Main page
Satellite images 10-day forecastsClimateMarine weather Cyclones Lightning AirportsFAQ Newsletter About
Weather : Europe Africa North America South America Asia Australia-Oceania Others
Languages Contact

Bucharest, Romania

Henri Coandă International Airport

latitude: 44-33N, longitude: 026-06E, elevation: 95 m


METAR: LROP 011000Z 25020KT CAVOK 14/06 Q1005 RMK R88/29//95 NOSIG
TAF: LROP 010500Z 0106/0206 23010KT CAVOK BECMG 0108/0110 27018G28KT BECMG 0116/0118 29015KT

Time: 13:34 (10:34 UTC)

Current weather observation

The report was made 34 minutes ago, at 10:00 UTC
Wind 20 kt from the West/Southwest
Temperature 14°C
Humidity 58%
Pressure 1005 hPa
Visibility 10 km or more
no clouds below 1500 m and no cumulonimbus

Change units

Forecast

The report was made 5 hours and 34 minutes ago, at 05:00 UTC
Forecast valid from 01 at 06 UTC to 02 at 06 UTC
Wind 10 kt from the Southwest
Visibility 10 km or more
no clouds below 1500 m and no cumulonimbus
Becoming
from 01 at 08 UTC to 01 at 10 UTC
Wind 18 kt from the West with gusts up to 28 kt
Becoming
from 01 at 16 UTC to 01 at 18 UTC
Wind 15 kt from the West/Northwest
The information on this site is subject to a disclaimer
Weather : Europe Africa North America South America Asia Australia-Oceania Others
Satellite images 10-day forecastsClimateMarine weather Cyclones Lightning AirportsFAQ Languages Contact Newsletter About